createdAt,value
2018-02-12T00:01:40.953Z,3.65
2018-02-12T00:04:08.621Z,3.62
2018-02-12T00:06:36.219Z,3.57
2018-02-12T00:09:03.886Z,3.59
2018-02-12T00:11:31.554Z,3.55
2018-02-12T00:13:59.319Z,3.58
2018-02-12T00:16:27.035Z,3.60
2018-02-12T00:18:54.820Z,3.61
2018-02-12T00:21:22.427Z,3.64
2018-02-12T00:23:50.149Z,3.66
2018-02-12T00:26:17.763Z,3.68
2018-02-12T00:28:45.390Z,3.71
2018-02-12T00:31:13.012Z,3.60
2018-02-12T00:33:40.725Z,3.54
2018-02-12T00:36:08.334Z,3.49
2018-02-12T00:38:36.054Z,3.48
2018-02-12T00:41:05.150Z,3.46
2018-02-12T00:43:32.854Z,3.37
2018-02-12T00:46:00.601Z,3.35
2018-02-12T00:48:28.306Z,3.28
2018-02-12T00:50:55.997Z,3.29
2018-02-12T00:53:23.690Z,3.26
2018-02-12T00:55:51.388Z,3.19
2018-02-12T00:58:19.151Z,3.13
2018-02-12T01:00:46.837Z,3.08
2018-02-12T01:03:14.491Z,3.12
2018-02-12T01:05:42.202Z,3.06
2018-02-12T01:08:09.906Z,3.04
2018-02-12T01:10:37.629Z,3.05
2018-02-12T01:13:05.322Z,3.06
2018-02-12T01:15:33.052Z,3.05
2018-02-12T01:18:00.713Z,3.04
2018-02-12T01:20:28.491Z,3.06
2018-02-12T01:22:56.159Z,3.12
2018-02-12T01:25:23.870Z,3.12
2018-02-12T01:27:51.562Z,3.14
2018-02-12T01:30:19.348Z,3.16
2018-02-12T01:32:47.023Z,3.17
2018-02-12T01:35:14.722Z,3.21
2018-02-12T01:37:42.398Z,3.18
2018-02-12T01:40:10.163Z,3.20
2018-02-12T01:42:37.860Z,3.18
2018-02-12T01:45:05.474Z,3.20
2018-02-12T01:47:33.318Z,3.19
2018-02-12T01:50:12.744Z,3.21
2018-02-12T01:52:40.435Z,3.22
2018-02-12T01:55:08.180Z,3.24
2018-02-12T01:57:35.889Z,3.28
2018-02-12T02:00:03.691Z,3.28
2018-02-12T02:02:31.360Z,3.25
2018-02-12T02:04:59.086Z,3.25
2018-02-12T02:07:26.793Z,3.24
2018-02-12T02:09:54.510Z,3.22
2018-02-12T02:12:22.178Z,3.17
2018-02-12T02:14:49.822Z,3.17
2018-02-12T02:17:17.488Z,3.18
2018-02-12T02:19:45.233Z,3.22
2018-02-12T02:22:12.912Z,3.20
2018-02-12T02:24:40.742Z,3.18
2018-02-12T02:27:08.432Z,3.17
2018-02-12T02:29:36.141Z,3.16
2018-02-12T02:32:03.940Z,3.15
2018-02-12T02:34:31.550Z,3.15
2018-02-12T02:36:59.282Z,3.16
2018-02-12T02:39:27.804Z,3.16
2018-02-12T02:41:55.526Z,3.20
2018-02-12T02:44:23.238Z,3.22
2018-02-12T02:46:50.938Z,3.23
2018-02-12T02:49:18.663Z,3.23
2018-02-12T02:51:47.035Z,3.24
2018-02-12T02:54:14.786Z,3.20
2018-02-12T02:56:42.494Z,3.20
2018-02-12T02:59:10.178Z,3.23
2018-02-12T03:01:37.909Z,3.18
2018-02-12T03:04:05.590Z,3.20
2018-02-12T03:06:33.322Z,3.20
2018-02-12T03:09:00.996Z,3.20
2018-02-12T03:11:28.618Z,3.19
2018-02-12T03:13:56.294Z,3.18
2018-02-12T03:16:23.943Z,3.15
2018-02-12T03:18:51.634Z,3.18
2018-02-12T03:21:19.462Z,3.18
2018-02-12T03:23:47.133Z,3.18
2018-02-12T03:26:14.856Z,3.14
2018-02-12T03:28:42.539Z,3.17
2018-02-12T03:31:10.274Z,3.18
2018-02-12T03:33:37.980Z,3.20
2018-02-12T03:36:05.686Z,3.23
2018-02-12T03:38:33.369Z,3.21
2018-02-12T03:41:01.076Z,3.24
2018-02-12T03:43:28.768Z,3.25
2018-02-12T03:45:57.270Z,3.25
2018-02-12T03:48:24.974Z,3.23
2018-02-12T03:50:52.729Z,3.24
2018-02-12T03:53:20.406Z,3.26
2018-02-12T03:55:48.097Z,3.28
2018-02-12T03:58:15.821Z,3.31
2018-02-12T04:00:43.509Z,3.30
2018-02-12T04:03:11.203Z,3.28
2018-02-12T04:05:38.974Z,3.27
2018-02-12T04:08:06.721Z,3.25
2018-02-12T04:10:34.414Z,3.24
2018-02-12T04:13:02.047Z,3.23
2018-02-12T04:15:29.810Z,3.26
2018-02-12T04:17:57.502Z,3.26
2018-02-12T04:20:25.192Z,3.25
2018-02-12T04:22:52.933Z,3.23
2018-02-12T04:25:20.610Z,3.22
2018-02-12T04:27:48.319Z,3.23
2018-02-12T04:30:15.914Z,3.23
2018-02-12T04:32:43.738Z,3.22
2018-02-12T04:35:11.420Z,3.20
2018-02-12T04:37:39.130Z,3.19
2018-02-12T04:40:06.844Z,3.17
2018-02-12T04:42:34.549Z,3.21
2018-02-12T04:45:02.268Z,3.21
2018-02-12T04:47:29.987Z,3.24
2018-02-12T04:49:57.658Z,3.25
2018-02-12T04:52:25.368Z,3.22
2018-02-12T04:54:53.087Z,3.18
2018-02-12T04:57:20.854Z,3.14
2018-02-12T04:59:48.548Z,3.12
2018-02-12T05:02:17.630Z,3.09
2018-02-12T05:04:46.028Z,3.11
2018-02-12T05:07:13.700Z,3.12
2018-02-12T05:09:41.531Z,3.13
2018-02-12T05:12:09.201Z,3.09
2018-02-12T05:14:36.968Z,3.08
2018-02-12T05:17:04.634Z,3.11
2018-02-12T05:19:32.343Z,3.07
2018-02-12T05:22:00.020Z,3.06
2018-02-12T05:24:27.747Z,3.07
2018-02-12T05:26:55.481Z,3.07
2018-02-12T05:29:23.199Z,3.06
2018-02-12T05:31:50.796Z,3.06
2018-02-12T05:34:18.514Z,3.01
2018-02-12T05:36:46.190Z,2.98
2018-02-12T05:39:13.906Z,2.97
2018-02-12T05:41:41.575Z,2.98
2018-02-12T05:44:09.285Z,2.94
2018-02-12T05:46:36.958Z,2.94
2018-02-12T05:49:04.663Z,2.94
2018-02-12T05:51:32.382Z,2.90
2018-02-12T05:54:00.085Z,2.92
2018-02-12T05:56:27.790Z,2.89
2018-02-12T05:58:55.527Z,2.91
2018-02-12T06:01:23.326Z,2.89
2018-02-12T06:03:51.061Z,2.93
2018-02-12T06:06:18.778Z,2.91
2018-02-12T06:08:46.569Z,2.88
2018-02-12T06:11:14.266Z,2.87
2018-02-12T06:13:41.992Z,2.89
2018-02-12T06:16:09.707Z,2.87
2018-02-12T06:18:37.389Z,2.84
2018-02-12T06:21:05.113Z,2.84
2018-02-12T06:23:32.788Z,2.86
2018-02-12T06:26:00.474Z,2.84
2018-02-12T06:28:28.156Z,2.86
2018-02-12T06:30:55.861Z,2.86
2018-02-12T06:33:23.597Z,2.88
2018-02-12T06:35:51.307Z,2.89
2018-02-12T06:38:19.021Z,2.89
2018-02-12T06:40:46.693Z,2.86
2018-02-12T06:43:14.357Z,2.87
2018-02-12T06:45:42.164Z,2.88
2018-02-12T06:48:10.787Z,2.84
2018-02-12T06:50:38.491Z,2.81
2018-02-12T06:53:06.828Z,2.83
2018-02-12T06:55:34.543Z,2.82
2018-02-12T06:58:02.232Z,2.81
2018-02-12T07:00:29.967Z,2.80
2018-02-12T07:02:57.678Z,2.82
2018-02-12T07:05:25.383Z,2.81
2018-02-12T07:07:53.716Z,2.85
2018-02-12T07:10:21.467Z,2.88
2018-02-12T07:12:49.159Z,2.90
2018-02-12T07:15:16.862Z,2.89
2018-02-12T07:17:44.546Z,2.89
2018-02-12T07:20:12.325Z,2.90
2018-02-12T07:22:40.029Z,2.92
2018-02-12T07:25:07.800Z,2.96
2018-02-12T07:27:35.498Z,2.94
2018-02-12T07:30:03.228Z,2.98
2018-02-12T07:32:30.925Z,3.01
2018-02-12T07:34:58.666Z,3.02
2018-02-12T07:37:26.386Z,3.03
2018-02-12T07:39:54.120Z,3.02
2018-02-12T07:42:21.835Z,3.04
2018-02-12T07:44:49.554Z,3.10
2018-02-12T07:47:17.363Z,3.07
2018-02-12T07:49:45.069Z,3.08
2018-02-12T07:52:12.790Z,3.12
2018-02-12T07:54:40.474Z,3.10
2018-02-12T07:57:08.215Z,3.09
2018-02-12T07:59:35.891Z,3.12
2018-02-12T08:02:03.658Z,3.16
2018-02-12T08:04:31.366Z,3.20
2018-02-12T08:06:59.103Z,3.22
2018-02-12T08:09:27.709Z,3.24
2018-02-12T08:11:55.416Z,3.29
2018-02-12T08:14:23.135Z,3.34
2018-02-12T08:16:50.820Z,3.35
2018-02-12T08:19:18.455Z,3.40
2018-02-12T08:21:46.111Z,3.40
2018-02-12T08:24:13.801Z,3.42
2018-02-12T08:26:41.544Z,3.86
2018-02-12T08:29:09.154Z,3.73
2018-02-12T08:31:36.795Z,3.67
2018-02-12T08:34:04.590Z,3.59
2018-02-12T08:36:32.279Z,3.57
2018-02-12T08:38:59.975Z,3.57
2018-02-12T08:41:27.734Z,3.59
2018-02-12T08:43:55.443Z,3.55
2018-02-12T08:46:23.765Z,3.47
2018-02-12T08:48:51.586Z,3.48
2018-02-12T08:51:19.301Z,3.46
2018-02-12T08:53:46.959Z,3.46
2018-02-12T08:56:14.575Z,3.48
2018-02-12T08:58:42.339Z,3.48
2018-02-12T09:01:10.015Z,3.45
2018-02-12T09:03:37.743Z,3.43
2018-02-12T09:06:05.342Z,3.47
2018-02-12T09:08:33.054Z,3.49
2018-02-12T09:11:00.748Z,3.55
2018-02-12T09:13:28.473Z,3.62
2018-02-12T09:15:56.175Z,3.67
2018-02-12T09:18:23.920Z,3.61
2018-02-12T09:20:51.623Z,3.59
2018-02-12T09:23:19.423Z,3.64
2018-02-12T09:25:47.161Z,3.70
2018-02-12T09:28:14.871Z,3.71
2018-02-12T09:30:42.559Z,3.78
2018-02-12T09:33:10.418Z,3.80
2018-02-12T09:35:38.222Z,3.84
2018-02-12T09:38:05.988Z,3.93
2018-02-12T09:40:33.674Z,3.99
2018-02-12T09:43:01.410Z,4.01
2018-02-12T09:45:29.053Z,4.05
2018-02-12T09:47:56.763Z,4.07
2018-02-12T09:50:24.605Z,4.11
2018-02-12T09:52:52.359Z,4.35
2018-02-12T09:55:20.072Z,4.49
2018-02-12T09:57:47.697Z,4.55
2018-02-12T10:00:15.395Z,4.57
2018-02-12T10:02:43.004Z,4.57
2018-02-12T10:05:10.643Z,4.59
2018-02-12T10:07:38.285Z,4.58
2018-02-12T10:10:06.035Z,4.55
2018-02-12T10:12:33.652Z,4.57
2018-02-12T10:15:01.292Z,4.58
2018-02-12T10:17:29.078Z,4.57
2018-02-12T10:19:56.803Z,4.62
2018-02-12T10:22:24.526Z,4.54
2018-02-12T10:24:52.195Z,4.57
2018-02-12T10:27:19.867Z,4.67
2018-02-12T10:29:47.523Z,4.70
2018-02-12T10:32:15.172Z,4.78
2018-02-12T10:34:42.806Z,4.81
2018-02-12T10:37:10.412Z,4.85
2018-02-12T10:39:38.051Z,4.94
2018-02-12T10:42:05.669Z,5.05
2018-02-12T10:44:33.306Z,5.11
2018-02-12T10:47:00.935Z,5.06
2018-02-12T10:49:28.551Z,4.93
2018-02-12T10:51:56.214Z,4.89
2018-02-12T10:54:23.896Z,4.88
2018-02-12T10:56:51.515Z,5.00
2018-02-12T10:59:19.153Z,5.22
2018-02-12T11:01:46.832Z,5.29
2018-02-12T11:04:14.488Z,5.49
2018-02-12T11:06:42.165Z,5.64
2018-02-12T11:09:09.812Z,5.58
2018-02-12T11:11:37.440Z,5.95
2018-02-12T11:14:05.142Z,6.47
2018-02-12T11:16:32.772Z,6.59
2018-02-12T11:19:00.424Z,6.74
2018-02-12T11:21:28.043Z,6.61
2018-02-12T11:23:55.714Z,6.51
2018-02-12T11:26:23.334Z,6.65
2018-02-12T11:28:50.961Z,7.03
2018-02-12T11:31:18.567Z,7.57
2018-02-12T11:33:46.236Z,7.51
2018-02-12T11:36:13.932Z,7.71
2018-02-12T11:38:41.543Z,7.62
2018-02-12T11:41:09.178Z,7.76
2018-02-12T11:43:36.828Z,7.71
2018-02-12T11:46:04.512Z,7.92
2018-02-12T11:48:32.201Z,7.99
2018-02-12T11:50:59.853Z,7.84
2018-02-12T11:53:27.503Z,7.94
2018-02-12T11:55:55.136Z,8.24
2018-02-12T11:58:22.784Z,8.38
2018-02-12T12:00:50.467Z,8.79
2018-02-12T12:03:18.099Z,8.84
2018-02-12T12:05:45.742Z,8.78
2018-02-12T12:08:13.354Z,8.71
2018-02-12T12:10:41.100Z,8.76
2018-02-12T12:13:08.706Z,8.45
2018-02-12T12:15:36.431Z,8.85
2018-02-12T12:18:04.050Z,9.21
2018-02-12T12:20:32.273Z,8.89
2018-02-12T12:22:59.882Z,7.74
2018-02-12T12:25:27.533Z,6.94
2018-02-12T12:27:55.143Z,6.59
2018-02-12T12:30:22.783Z,6.86
2018-02-12T12:32:50.411Z,7.36
2018-02-12T12:35:18.061Z,7.76
2018-02-12T12:37:45.692Z,7.75
2018-02-12T12:40:13.323Z,7.25
2018-02-12T12:42:40.958Z,7.08
2018-02-12T12:45:08.611Z,7.43
2018-02-12T12:47:36.203Z,7.70
2018-02-12T12:50:03.865Z,8.02
2018-02-12T12:52:31.529Z,8.20
2018-02-12T12:54:59.182Z,8.31
2018-02-12T12:57:26.812Z,8.15
2018-02-12T12:59:54.441Z,8.43
2018-02-12T13:02:22.046Z,8.48
2018-02-12T13:04:49.712Z,8.74
2018-02-12T13:07:17.336Z,8.64
2018-02-12T13:09:45.005Z,8.93
2018-02-12T13:12:12.607Z,9.08
2018-02-12T13:14:40.209Z,9.04
2018-02-12T13:17:08.011Z,8.91
2018-02-12T13:19:35.654Z,8.90
2018-02-12T13:22:03.299Z,8.97
2018-02-12T13:24:30.894Z,9.06
2018-02-12T13:26:58.560Z,9.10
2018-02-12T13:29:26.244Z,8.91
2018-02-12T13:31:53.902Z,8.59
2018-02-12T13:34:21.515Z,8.93
2018-02-12T13:36:49.155Z,9.04
2018-02-12T13:39:16.795Z,9.28
2018-02-12T13:41:44.446Z,9.48
2018-02-12T13:44:12.054Z,9.52
2018-02-12T13:46:39.722Z,9.23
2018-02-12T13:49:07.334Z,8.92
2018-02-12T13:51:34.962Z,8.60
2018-02-12T13:54:02.636Z,8.49
2018-02-12T13:56:30.282Z,8.49
2018-02-12T13:58:57.885Z,8.79
2018-02-12T14:01:25.605Z,9.03
2018-02-12T14:03:53.245Z,9.08
2018-02-12T14:06:20.842Z,8.59
2018-02-12T14:08:48.523Z,8.13
2018-02-12T14:11:16.146Z,7.80
2018-02-12T14:13:43.799Z,7.45
2018-02-12T14:16:11.478Z,7.32
2018-02-12T14:18:39.074Z,7.20
2018-02-12T14:21:06.768Z,7.08
2018-02-12T14:23:35.054Z,6.86
2018-02-12T14:26:02.754Z,6.83
2018-02-12T14:28:30.399Z,6.82
2018-02-12T14:30:58.050Z,6.84
2018-02-12T14:33:25.666Z,6.72
2018-02-12T14:35:53.354Z,6.57
2018-02-12T14:38:21.040Z,6.36
2018-02-12T14:40:48.718Z,6.18
2018-02-12T14:43:16.339Z,6.05
2018-02-12T14:45:43.999Z,6.01
2018-02-12T14:48:11.615Z,5.77
2018-02-12T14:50:39.375Z,5.60
2018-02-12T14:53:07.004Z,4.87
2018-02-12T14:55:34.698Z,4.54
2018-02-12T14:58:02.338Z,4.10
2018-02-12T15:00:30.010Z,3.68
2018-02-12T15:02:57.661Z,3.67
2018-02-12T15:05:25.339Z,3.80
2018-02-12T15:07:52.978Z,3.96
2018-02-12T15:10:20.654Z,4.21
2018-02-12T15:12:48.367Z,4.57
2018-02-12T15:15:15.982Z,4.59
2018-02-12T15:17:43.752Z,4.42
2018-02-12T15:20:11.390Z,4.30
2018-02-12T15:22:39.058Z,4.21
2018-02-12T15:25:06.667Z,4.10
2018-02-12T15:27:34.316Z,4.06
2018-02-12T15:30:02.002Z,4.07
2018-02-12T15:32:29.692Z,4.08
2018-02-12T15:34:57.417Z,4.08
2018-02-12T15:37:25.034Z,4.17
2018-02-12T15:39:52.695Z,4.25
2018-02-12T15:42:20.428Z,4.29
2018-02-12T15:44:48.090Z,4.24
2018-02-12T15:47:15.724Z,4.28
2018-02-12T15:49:43.405Z,4.29
2018-02-12T15:52:11.078Z,4.32
2018-02-12T15:54:38.691Z,4.23
2018-02-12T15:57:06.326Z,4.25
2018-02-12T15:59:34.059Z,4.13
2018-02-12T16:02:01.802Z,4.08
2018-02-12T16:04:29.510Z,4.19
2018-02-12T16:06:57.163Z,4.18
2018-02-12T16:09:24.802Z,4.16
2018-02-12T16:11:52.464Z,4.12
2018-02-12T16:14:20.073Z,4.14
2018-02-12T16:16:47.734Z,4.09
2018-02-12T16:19:15.392Z,4.03
2018-02-12T16:21:43.045Z,4.04
2018-02-12T16:24:10.658Z,4.08
2018-02-12T16:26:38.417Z,4.23
2018-02-12T16:29:06.073Z,4.29
2018-02-12T16:31:33.706Z,4.30
2018-02-12T16:34:01.334Z,4.37
2018-02-12T16:36:28.978Z,4.39
2018-02-12T16:38:56.622Z,4.43
2018-02-12T16:41:24.522Z,4.41
2018-02-12T16:43:52.130Z,4.39
2018-02-12T16:46:19.749Z,4.37
2018-02-12T16:48:47.396Z,4.40
2018-02-12T16:51:15.035Z,4.47
2018-02-12T16:53:42.679Z,4.53
2018-02-12T16:56:10.340Z,4.54
2018-02-12T16:58:37.982Z,4.49
2018-02-12T17:01:05.611Z,4.47
2018-02-12T17:03:33.222Z,4.35
2018-02-12T17:06:00.889Z,4.26
2018-02-12T17:08:28.513Z,4.23
2018-02-12T17:10:56.163Z,4.22
2018-02-12T17:13:23.803Z,4.27
2018-02-12T17:15:51.436Z,4.31
2018-02-12T17:18:19.088Z,4.35
2018-02-12T17:20:47.059Z,4.30
2018-02-12T17:23:14.995Z,4.24
2018-02-12T17:25:42.655Z,4.22
2018-02-12T17:28:10.320Z,4.22
2018-02-12T17:30:37.966Z,4.16
2018-02-12T17:33:05.650Z,4.14
2018-02-12T17:35:33.279Z,4.17
2018-02-12T17:38:00.953Z,4.20
2018-02-12T17:40:28.562Z,4.19
2018-02-12T17:42:56.316Z,4.16
2018-02-12T17:45:23.943Z,4.21
2018-02-12T17:47:51.606Z,4.25
2018-02-12T17:50:19.238Z,4.19
2018-02-12T17:52:46.900Z,4.06
2018-02-12T17:55:14.541Z,3.98
2018-02-12T17:57:42.223Z,3.94
2018-02-12T18:00:09.857Z,4.00
2018-02-12T18:02:37.535Z,4.03
2018-02-12T18:05:05.195Z,4.13
2018-02-12T18:07:33.054Z,4.23
2018-02-12T18:10:00.755Z,4.29
2018-02-12T18:12:28.435Z,4.24
2018-02-12T18:14:56.112Z,4.14
2018-02-12T18:17:23.895Z,4.07
2018-02-12T18:19:51.507Z,4.00
2018-02-12T18:22:19.160Z,3.95
2018-02-12T18:24:46.860Z,3.90
2018-02-12T18:27:14.535Z,3.92
2018-02-12T18:29:42.210Z,4.01
2018-02-12T18:32:09.847Z,4.11
2018-02-12T18:34:37.489Z,4.07
2018-02-12T18:37:05.170Z,4.07
2018-02-12T18:39:32.838Z,4.12
2018-02-12T18:42:00.590Z,4.12
2018-02-12T18:44:28.229Z,4.18
2018-02-12T18:46:56.023Z,4.20
2018-02-12T18:49:24.362Z,4.14
2018-02-12T18:51:52.027Z,4.04
2018-02-12T18:54:19.656Z,4.03
2018-02-12T18:56:48.191Z,3.98
2018-02-12T18:59:15.808Z,3.90
2018-02-12T19:01:43.447Z,3.80
2018-02-12T19:04:11.057Z,3.78
2018-02-12T19:06:38.757Z,3.81
2018-02-12T19:09:06.421Z,3.91
2018-02-12T19:11:34.063Z,3.97
2018-02-12T19:14:01.677Z,3.98
2018-02-12T19:16:29.606Z,3.96
2018-02-12T19:18:57.271Z,3.81
2018-02-12T19:21:24.977Z,3.59
2018-02-12T19:23:53.234Z,3.55
2018-02-12T19:26:20.899Z,3.67
2018-02-12T19:28:48.527Z,3.64
2018-02-12T19:31:16.191Z,3.48
2018-02-12T19:33:43.843Z,3.34
2018-02-12T19:36:11.571Z,3.29
2018-02-12T19:38:39.338Z,3.15
2018-02-12T19:41:07.098Z,3.12
2018-02-12T19:43:34.712Z,3.13
2018-02-12T19:46:03.318Z,3.08
2018-02-12T19:48:30.930Z,3.00
2018-02-12T19:51:00.299Z,2.99
2018-02-12T19:53:27.912Z,3.00
2018-02-12T19:55:55.556Z,2.93
2018-02-12T19:58:23.282Z,2.96
2018-02-12T20:00:50.904Z,2.95
2018-02-12T20:03:18.623Z,2.94
2018-02-12T20:05:46.368Z,3.00
2018-02-12T20:08:14.139Z,3.12
2018-02-12T20:10:41.810Z,3.09
2018-02-12T20:13:09.464Z,3.05
2018-02-12T20:15:37.897Z,3.00
2018-02-12T20:18:05.572Z,3.02
2018-02-12T20:20:33.227Z,3.12
2018-02-12T20:23:00.933Z,3.22
2018-02-12T20:25:28.559Z,3.22
2018-02-12T20:27:56.192Z,3.12
2018-02-12T20:30:23.881Z,3.17
2018-02-12T20:32:51.499Z,3.13
2018-02-12T20:35:19.138Z,3.05
2018-02-12T20:37:47.472Z,2.94
2018-02-12T20:40:15.244Z,2.84
2018-02-12T20:42:42.988Z,2.76
2018-02-12T20:45:10.676Z,2.73
2018-02-12T20:47:38.312Z,2.71
2018-02-12T20:50:06.925Z,2.65
2018-02-12T20:52:35.282Z,2.63
2018-02-12T20:55:02.972Z,2.61
2018-02-12T20:57:30.688Z,2.61
2018-02-12T20:59:58.399Z,2.65
2018-02-12T21:02:26.139Z,2.66
2018-02-12T21:04:53.855Z,2.69
2018-02-12T21:07:21.589Z,2.62
2018-02-12T21:09:49.396Z,2.43
2018-02-12T21:12:17.012Z,2.31
2018-02-12T21:14:44.750Z,2.26
2018-02-12T21:17:12.490Z,2.28
2018-02-12T21:19:40.227Z,2.12
2018-02-12T21:22:07.993Z,2.04
2018-02-12T21:24:35.685Z,2.10
2018-02-12T21:27:03.383Z,2.24
2018-02-12T21:29:31.143Z,2.36
2018-02-12T21:31:58.996Z,2.47
2018-02-12T21:34:26.718Z,2.30
2018-02-12T21:36:54.414Z,2.23
2018-02-12T21:39:22.161Z,2.10
2018-02-12T21:41:49.834Z,2.00
2018-02-12T21:44:17.566Z,1.93
2018-02-12T21:46:45.336Z,1.81
2018-02-12T21:49:13.047Z,1.72
2018-02-12T21:51:40.794Z,1.66
2018-02-12T21:54:08.511Z,1.60
2018-02-12T21:56:36.287Z,1.64
2018-02-12T21:59:04.058Z,1.64
2018-02-12T22:01:31.764Z,1.66
2018-02-12T22:03:59.515Z,1.72
2018-02-12T22:06:27.209Z,1.82
2018-02-12T22:08:55.056Z,2.02
2018-02-12T22:11:23.630Z,2.02
2018-02-12T22:13:51.314Z,2.07
2018-02-12T22:16:19.074Z,2.06
2018-02-12T22:18:47.009Z,2.11
2018-02-12T22:21:15.476Z,2.19
2018-02-12T22:23:43.223Z,2.22
2018-02-12T22:26:11.016Z,2.26
2018-02-12T22:28:38.822Z,2.30
2018-02-12T22:31:06.562Z,2.29
2018-02-12T22:33:34.871Z,2.25
2018-02-12T22:36:02.592Z,2.16
2018-02-12T22:38:31.726Z,2.11
2018-02-12T22:40:59.657Z,2.11
2018-02-12T22:43:27.403Z,2.13
2018-02-12T22:45:55.090Z,2.15
2018-02-12T22:48:22.848Z,2.16
2018-02-12T22:50:50.595Z,2.17
2018-02-12T22:53:18.298Z,2.23
2018-02-12T22:55:46.071Z,2.31
2018-02-12T22:58:14.079Z,2.31
2018-02-12T23:00:41.795Z,2.33
2018-02-12T23:03:09.462Z,2.35
2018-02-12T23:05:37.295Z,2.38
2018-02-12T23:08:05.089Z,2.30
2018-02-12T23:10:32.830Z,2.29
2018-02-12T23:13:00.516Z,2.29
2018-02-12T23:15:34.138Z,2.27
2018-02-12T23:18:02.243Z,2.30
2018-02-12T23:20:30.011Z,2.30
2018-02-12T23:22:57.695Z,2.19
2018-02-12T23:25:25.495Z,2.18
2018-02-12T23:27:53.228Z,2.20
2018-02-12T23:30:20.962Z,2.17
2018-02-12T23:32:48.838Z,2.14
2018-02-12T23:35:16.532Z,2.12
2018-02-12T23:37:44.262Z,2.05
2018-02-12T23:40:11.965Z,2.02
2018-02-12T23:42:39.672Z,2.07
2018-02-12T23:45:07.421Z,2.07
2018-02-12T23:47:35.072Z,1.99
2018-02-12T23:50:02.810Z,1.96
2018-02-12T23:52:30.555Z,1.97
2018-02-12T23:54:58.296Z,1.92
2018-02-12T23:57:26.012Z,1.95
2018-02-12T23:59:53.747Z,1.95
